Mardan Weather



Mardan's Current Weather

Temprature 26o haze

haze

Rain: 0 %

Min Temprature26o
Max Temprature26o
Humidity78
Wind Speed2.1 m/h
Sun Rise05:38:34
Sun Set18:51:01
Current Time: 23-Aug-2019 05:57:27
Lat/Lon: 34.19, 72.05




Mardan's Geo Location



Mardan's Weather Forecast

Time Overall Temp Min Temp Max Temp Humidity Wind Speed Rain
23-Aug-2019 (Fri)
08:00:00 clear sky 29.210 28.367 29.210 54 1.85 m/h 0 %
11:00:00 clear sky 32.480 31.850 32.480 45 2.08 m/h 0 %
14:00:00 clear sky 33.650 33.231 33.650 42 1.89 m/h 0 %
17:00:00 clear sky 33.320 33.111 33.320 42 0.88 m/h 0 %
20:00:00 clear sky 28.550 28.550 28.550 53 2.04 m/h 0 %
23:00:00 clear sky 27.542 27.542 27.542 58 2.25 m/h 0 %
24-Aug-2019 (Sat)
02:00:00 clear sky 26.331 26.331 26.331 59 2.68 m/h 0 %
05:00:00 clear sky 25.655 25.655 25.655 56 3.25 m/h 0 %
08:00:00 light rain 27.787 27.787 27.787 58 1.97 m/h 75 %
11:00:00 light rain 33.069 33.069 33.069 43 1 m/h 6 %
14:00:00 clear sky 34.169 34.169 34.169 39 2.12 m/h 0 %
17:00:00 clear sky 34.023 34.023 34.023 40 0.73 m/h 0 %
20:00:00 clear sky 29.250 29.250 29.250 50 1.59 m/h 0 %
23:00:00 clear sky 28.269 28.269 28.269 54 2.61 m/h 0 %
25-Aug-2019 (Sun)
02:00:00 clear sky 26.831 26.831 26.831 55 2.73 m/h 0 %
05:00:00 clear sky 25.957 25.957 25.957 52 2.82 m/h 0 %
08:00:00 light rain 28.714 28.714 28.714 52 2.13 m/h 38 %
11:00:00 light rain 33.516 33.516 33.516 42 1.08 m/h 6 %
14:00:00 clear sky 34.650 34.650 34.650 39 2.04 m/h 0 %
17:00:00 clear sky 34.450 34.450 34.450 39 0.83 m/h 0 %
20:00:00 clear sky 29.981 29.981 29.981 48 2.57 m/h 0 %
23:00:00 clear sky 28.611 28.611 28.611 53 3.15 m/h 0 %
26-Aug-2019 (Mon)
02:00:00 light rain 26.465 26.465 26.465 60 2.14 m/h 56 %
05:00:00 moderate rain 24.350 24.350 24.350 72 2.48 m/h 444 %
08:00:00 moderate rain 27.167 27.167 27.167 67 1.45 m/h 413 %
11:00:00 light rain 30.872 30.872 30.872 58 2.2 m/h 6 %
14:00:00 clear sky 32.184 32.184 32.184 54 2.32 m/h 0 %
17:00:00 clear sky 32.420 32.420 32.420 51 0.97 m/h 0 %
20:00:00 clear sky 28.972 28.972 28.972 58 2.36 m/h 0 %
23:00:00 clear sky 28.114 28.114 28.114 58 2.06 m/h 0 %
27-Aug-2019 (Tue)
02:00:00 clear sky 26.816 26.816 26.816 63 2.38 m/h 0 %
05:00:00 clear sky 26.150 26.150 26.150 63 2.07 m/h 0 %
08:00:00 clear sky 28.935 28.935 28.935 56 0.65 m/h 0 %
11:00:00 clear sky 32.136 32.136 32.136 51 2.14 m/h 0 %
14:00:00 clear sky 33.936 33.936 33.936 45 1.97 m/h 0 %
17:00:00 clear sky 33.765 33.765 33.765 46 1.16 m/h 0 %
20:00:00 clear sky 29.350 29.350 29.350 56 1.83 m/h 0 %
23:00:00 clear sky 28.450 28.450 28.450 59 2.43 m/h 0 %
28-Aug-2019 (Wed)
02:00:00 light rain 27.057 27.057 27.057 63 2.75 m/h 44 %
05:00:00 light rain 25.572 25.572 25.572 68 2.16 m/h 75 %

Famous Cities (61)